RYR6CA LFBT-EIDW
Flight info
| Callsign | RYR6CA |
|---|---|
| Flight time | N/A |
| Altitude | 38000 |
| Route | USAKU DCT AGN DCT SECHE DCT UVELI DCT CNA DCT MANAK DCT MUREL DCT NOZHU DCT SHIRI DCT UNFIT DCT PENWU DCT NICXI DCT LEMGU M17 VATRY VATRY3R |
| Aircraft | B738/M-SDE2E3FGHIRWXY/LB1 |
Departure
| Time | 2026-04-24 12:12 |
|---|---|
| Airport | Tarbes-Lourdes-Pyrénées Airport (LFBT) |
Arrival
| Time | N/A |
|---|---|
| Airport | Dublin Airport (EIDW) |
| Time | Latitude | Longitude | Altitude | Speed | Heading |
|---|---|---|---|---|---|
| 2026-04-24 11:43 | 43.18519 | 0.00137 | 1195 ft | 0 kts | 193° |
| 2026-04-24 12:07 | 43.18517 | 0.00136 | 1195 ft | 1 kts | 193° |
| 2026-04-24 12:08 | 43.18494 | 0.00129 | 1195 ft | 5 kts | 193° |
| 2026-04-24 12:08 | 43.18475 | 0.00086 | 1196 ft | 7 kts | 276° |
| 2026-04-24 12:08 | 43.18488 | 0.00015 | 1196 ft | 9 kts | 284° |
| 2026-04-24 12:08 | 43.18505 | -0.00074 | 1196 ft | 11 kts | 284° |
| 2026-04-24 12:09 | 43.18525 | -0.00180 | 1197 ft | 12 kts | 285° |
| 2026-04-24 12:09 | 43.18574 | -0.00265 | 1195 ft | 12 kts | 356° |
| 2026-04-24 12:09 | 43.18662 | -0.00230 | 1192 ft | 14 kts | 20° |
| 2026-04-24 12:09 | 43.18753 | -0.00183 | 1190 ft | 14 kts | 20° |
| 2026-04-24 12:10 | 43.18851 | -0.00132 | 1187 ft | 16 kts | 20° |
| 2026-04-24 12:10 | 43.18959 | -0.00077 | 1183 ft | 17 kts | 20° |
| 2026-04-24 12:10 | 43.19055 | -0.00029 | 1177 ft | 9 kts | 22° |
| 2026-04-24 12:11 | 43.19106 | 0.00000 | 1177 ft | 2 kts | 290° |
| 2026-04-24 12:11 | 43.19094 | -0.00015 | 1176 ft | 3 kts | 201° |
| 2026-04-24 12:11 | 43.18927 | -0.00096 | 1184 ft | 68 kts | 197° |
| 2026-04-24 12:11 | 43.18169 | -0.00474 | 1213 ft | 157 kts | 200° |
| 2026-04-24 12:12 | 43.16983 | -0.01076 | 1784 ft | 192 kts | 200° |
| 2026-04-24 12:12 | 43.15699 | -0.01748 | 2879 ft | 209 kts | 201° |
| 2026-04-24 12:12 | 43.14349 | -0.02457 | 4094 ft | 209 kts | 200° |
| 2026-04-24 12:12 | 43.12938 | -0.03140 | 4721 ft | 221 kts | 199° |
| 2026-04-24 12:13 | 43.11414 | -0.03482 | 5463 ft | 224 kts | 170° |
| 2026-04-24 12:13 | 43.10028 | -0.02635 | 6344 ft | 220 kts | 136° |
| 2026-04-24 12:13 | 43.09229 | -0.00874 | 7140 ft | 223 kts | 103° |
| 2026-04-24 12:13 | 43.09177 | 0.01263 | 7840 ft | 232 kts | 84° |
| 2026-04-24 12:14 | 43.09411 | 0.03536 | 8330 ft | 248 kts | 82° |
| 2026-04-24 12:14 | 43.09674 | 0.05909 | 9013 ft | 255 kts | 82° |
| 2026-04-24 12:14 | 43.09932 | 0.08335 | 9712 ft | 260 kts | 82° |
| 2026-04-24 12:14 | 43.10186 | 0.10800 | 10036 ft | 266 kts | 82° |
| 2026-04-24 12:15 | 43.10496 | 0.13437 | 10172 ft | 296 kts | 73° |
| 2026-04-24 12:15 | 43.11376 | 0.16099 | 10403 ft | 321 kts | 62° |
| 2026-04-24 12:15 | 43.12451 | 0.18894 | 10772 ft | 339 kts | 62° |
| 2026-04-24 12:15 | 43.13540 | 0.21803 | 11452 ft | 346 kts | 62° |
| 2026-04-24 12:16 | 43.14628 | 0.24759 | 12264 ft | 350 kts | 62° |
| 2026-04-24 12:16 | 43.15831 | 0.27620 | 12990 ft | 354 kts | 49° |
| 2026-04-24 12:16 | 43.17717 | 0.29827 | 13835 ft | 353 kts | 31° |
| 2026-04-24 12:16 | 43.19820 | 0.31573 | 14697 ft | 355 kts | 28° |
| 2026-04-24 12:17 | 43.21981 | 0.33270 | 15495 ft | 360 kts | 28° |
| 2026-04-24 12:17 | 43.24165 | 0.34964 | 16289 ft | 363 kts | 28° |
| 2026-04-24 12:17 | 43.26379 | 0.36690 | 17026 ft | 368 kts | 28° |
| 2026-04-24 12:17 | 43.28606 | 0.38443 | 17788 ft | 371 kts | 28° |
| 2026-04-24 12:18 | 43.30852 | 0.40226 | 18527 ft | 375 kts | 29° |
| 2026-04-24 12:18 | 43.32351 | 0.41422 | 19002 ft | 377 kts | 29° |
| 2026-04-24 12:18 | 43.34628 | 0.43247 | 19708 ft | 381 kts | 29° |
| 2026-04-24 12:18 | 43.36923 | 0.45091 | 20400 ft | 384 kts | 29° |
| 2026-04-24 12:19 | 43.39999 | 0.47568 | 21279 ft | 389 kts | 29° |
| 2026-04-24 12:19 | 43.42341 | 0.49457 | 21909 ft | 392 kts | 29° |
| 2026-04-24 12:19 | 43.44706 | 0.51367 | 22505 ft | 396 kts | 29° |
| 2026-04-24 12:19 | 43.47091 | 0.53294 | 23108 ft | 399 kts | 29° |
| 2026-04-24 12:20 | 43.48709 | 0.54603 | 23507 ft | 401 kts | 29° |
| 2026-04-24 12:20 | 43.51122 | 0.56556 | 24086 ft | 404 kts | 28° |
| 2026-04-24 12:20 | 43.53554 | 0.58526 | 24620 ft | 407 kts | 28° |
| 2026-04-24 12:20 | 43.55979 | 0.60493 | 25147 ft | 411 kts | 29° |
| 2026-04-24 12:21 | 43.58449 | 0.62497 | 25661 ft | 414 kts | 29° |
| 2026-04-24 12:21 | 43.60940 | 0.64522 | 26153 ft | 417 kts | 29° |
| 2026-04-24 12:21 | 43.63442 | 0.66557 | 26636 ft | 420 kts | 29° |
| 2026-04-24 12:21 | 43.65969 | 0.68615 | 27104 ft | 423 kts | 29° |
| 2026-04-24 12:22 | 43.68508 | 0.70684 | 27554 ft | 425 kts | 29° |
| 2026-04-24 12:22 | 43.71066 | 0.72771 | 27991 ft | 428 kts | 30° |
| 2026-04-24 12:22 | 43.73640 | 0.74873 | 28408 ft | 431 kts | 30° |
| 2026-04-24 12:22 | 43.76232 | 0.76993 | 28820 ft | 433 kts | 30° |
| 2026-04-24 12:23 | 43.78833 | 0.79122 | 29225 ft | 436 kts | 30° |
| 2026-04-24 12:23 | 43.81451 | 0.81266 | 29611 ft | 438 kts | 30° |
| 2026-04-24 12:23 | 43.84083 | 0.83423 | 29992 ft | 441 kts | 29° |
| 2026-04-24 12:23 | 43.86877 | 0.85146 | 30303 ft | 442 kts | 12° |
| 2026-04-24 12:24 | 43.89925 | 0.85534 | 30666 ft | 442 kts | 356° |
| 2026-04-24 12:24 | 43.92940 | 0.84761 | 31024 ft | 442 kts | 340° |
| 2026-04-24 12:24 | 43.95758 | 0.83082 | 31433 ft | 442 kts | 334° |
| 2026-04-24 12:24 | 43.98533 | 0.81252 | 31884 ft | 440 kts | 334° |
| 2026-04-24 12:25 | 44.01284 | 0.79399 | 32336 ft | 439 kts | 334° |
| 2026-04-24 12:25 | 44.04022 | 0.77564 | 32847 ft | 435 kts | 334° |
| 2026-04-24 12:25 | 44.06748 | 0.75757 | 33307 ft | 433 kts | 334° |
| 2026-04-24 12:25 | 44.09478 | 0.73965 | 33666 ft | 434 kts | 334° |
| 2026-04-24 12:26 | 44.12207 | 0.72185 | 33981 ft | 435 kts | 334° |
| 2026-04-24 12:26 | 44.14954 | 0.70401 | 34344 ft | 434 kts | 334° |
| 2026-04-24 12:26 | 44.17683 | 0.68629 | 34742 ft | 432 kts | 334° |
| 2026-04-24 12:26 | 44.20403 | 0.66862 | 35097 ft | 432 kts | 334° |
| 2026-04-24 12:27 | 44.23137 | 0.65083 | 35378 ft | 433 kts | 334° |
| 2026-04-24 12:27 | 44.25867 | 0.63304 | 35688 ft | 433 kts | 334° |
| 2026-04-24 12:27 | 44.28593 | 0.61525 | 36033 ft | 432 kts | 334° |
| 2026-04-24 12:27 | 44.31281 | 0.59770 | 36340 ft | 432 kts | 334° |
| 2026-04-24 12:28 | 44.34004 | 0.57990 | 36595 ft | 433 kts | 334° |
| 2026-04-24 12:28 | 44.36767 | 0.56180 | 36861 ft | 433 kts | 334° |
| 2026-04-24 12:28 | 44.39494 | 0.54393 | 37208 ft | 431 kts | 334° |
| 2026-04-24 12:28 | 44.42168 | 0.52639 | 37551 ft | 429 kts | 334° |
| 2026-04-24 12:29 | 44.44870 | 0.50865 | 37837 ft | 429 kts | 334° |
| 2026-04-24 12:29 | 44.47565 | 0.49085 | 38085 ft | 429 kts | 334° |
| 2026-04-24 12:29 | 44.50278 | 0.47286 | 38074 ft | 434 kts | 334° |
| 2026-04-24 12:30 | 44.55711 | 0.43674 | 38079 ft | 429 kts | 334° |
| 2026-04-24 12:30 | 44.61049 | 0.40121 | 38090 ft | 422 kts | 334° |
| 2026-04-24 12:31 | 44.66358 | 0.36580 | 38100 ft | 423 kts | 334° |
| 2026-04-24 12:31 | 44.71669 | 0.33031 | 38105 ft | 423 kts | 334° |
| 2026-04-24 12:32 | 44.76992 | 0.29466 | 38104 ft | 424 kts | 334° |
| 2026-04-24 12:32 | 44.82312 | 0.25898 | 38101 ft | 424 kts | 334° |
| 2026-04-24 12:33 | 44.87647 | 0.22308 | 38103 ft | 425 kts | 333° |
| 2026-04-24 12:33 | 44.92980 | 0.18717 | 38104 ft | 425 kts | 333° |
| 2026-04-24 12:34 | 44.98324 | 0.15110 | 38104 ft | 426 kts | 333° |
| 2026-04-24 12:34 | 45.03663 | 0.11499 | 38086 ft | 426 kts | 333° |
| 2026-04-24 12:35 | 45.08974 | 0.07901 | 38083 ft | 425 kts | 333° |
| 2026-04-24 12:35 | 45.14337 | 0.04263 | 38080 ft | 424 kts | 333° |
| 2026-04-24 12:36 | 45.19611 | 0.00677 | 38090 ft | 423 kts | 333° |
| 2026-04-24 12:36 | 45.24908 | -0.02933 | 38094 ft | 422 kts | 333° |
| 2026-04-24 12:37 | 45.30206 | -0.06551 | 38088 ft | 422 kts | 333° |
| 2026-04-24 12:37 | 45.35565 | -0.10220 | 38105 ft | 434 kts | 333° |
| 2026-04-24 12:38 | 45.41055 | -0.13987 | 38108 ft | 440 kts | 333° |
| 2026-04-24 12:38 | 45.46590 | -0.17790 | 38100 ft | 440 kts | 333° |
| 2026-04-24 12:39 | 45.57455 | -0.25282 | 38107 ft | 432 kts | 333° |
| 2026-04-24 12:40 | 45.62865 | -0.29025 | 38103 ft | 433 kts | 333° |
| 2026-04-24 12:40 | 45.68073 | -0.33312 | 38102 ft | 432 kts | 321° |
| 2026-04-24 12:41 | 45.72777 | -0.38662 | 38103 ft | 433 kts | 320° |
| 2026-04-24 12:41 | 45.77466 | -0.44074 | 38101 ft | 434 kts | 320° |
| 2026-04-24 12:42 | 45.82190 | -0.49467 | 38100 ft | 434 kts | 320° |
| 2026-04-24 12:42 | 45.86932 | -0.54854 | 38100 ft | 435 kts | 320° |
| 2026-04-24 12:43 | 45.91675 | -0.60242 | 38102 ft | 435 kts | 320° |
| 2026-04-24 12:43 | 45.96376 | -0.65595 | 38100 ft | 434 kts | 320° |
| 2026-04-24 12:44 | 46.01108 | -0.70998 | 38102 ft | 434 kts | 320° |
| 2026-04-24 12:44 | 46.05819 | -0.76391 | 38107 ft | 432 kts | 320° |
| 2026-04-24 12:45 | 46.10520 | -0.81783 | 38095 ft | 431 kts | 320° |
| 2026-04-24 12:45 | 46.15201 | -0.87166 | 38097 ft | 430 kts | 320° |
| 2026-04-24 12:46 | 46.19866 | -0.92540 | 38100 ft | 428 kts | 320° |
| 2026-04-24 12:46 | 46.24852 | -0.97224 | 38111 ft | 428 kts | 330° |
| 2026-04-24 12:47 | 46.30105 | -1.01261 | 38105 ft | 428 kts | 331° |
| 2026-04-24 12:47 | 46.35357 | -1.05295 | 38101 ft | 427 kts | 331° |
| 2026-04-24 12:48 | 46.40588 | -1.09380 | 38100 ft | 427 kts | 330° |
| 2026-04-24 12:48 | 46.45814 | -1.13505 | 38102 ft | 428 kts | 330° |
| 2026-04-24 12:49 | 46.51044 | -1.17652 | 38099 ft | 428 kts | 330° |
| 2026-04-24 12:49 | 46.56275 | -1.21809 | 38102 ft | 429 kts | 330° |
| 2026-04-24 12:50 | 46.61511 | -1.25977 | 38105 ft | 430 kts | 330° |
| 2026-04-24 12:50 | 46.66759 | -1.30166 | 38106 ft | 430 kts | 330° |
| 2026-04-24 12:51 | 46.71975 | -1.34339 | 38102 ft | 431 kts | 330° |
| 2026-04-24 12:51 | 46.77234 | -1.38555 | 38097 ft | 432 kts | 330° |
| 2026-04-24 12:52 | 46.82497 | -1.42783 | 38103 ft | 432 kts | 330° |
| 2026-04-24 12:52 | 46.87758 | -1.47020 | 38102 ft | 432 kts | 330° |
| 2026-04-24 12:53 | 46.93027 | -1.51273 | 38103 ft | 432 kts | 330° |
| 2026-04-24 12:53 | 46.98282 | -1.55524 | 38104 ft | 431 kts | 330° |
| 2026-04-24 12:54 | 47.03529 | -1.59777 | 38100 ft | 431 kts | 330° |
| 2026-04-24 12:54 | 47.08768 | -1.64033 | 38101 ft | 430 kts | 330° |
| 2026-04-24 12:55 | 47.13986 | -1.68284 | 38098 ft | 429 kts | 330° |
| 2026-04-24 12:55 | 47.19195 | -1.72536 | 38099 ft | 427 kts | 330° |
| 2026-04-24 12:56 | 47.24387 | -1.76786 | 38100 ft | 427 kts | 330° |
| 2026-04-24 12:56 | 47.29572 | -1.81036 | 38105 ft | 426 kts | 330° |
| 2026-04-24 12:57 | 47.34752 | -1.85293 | 38099 ft | 426 kts | 330° |
| 2026-04-24 12:57 | 47.39929 | -1.89555 | 38109 ft | 426 kts | 330° |
| 2026-04-24 12:58 | 47.45067 | -1.93799 | 38110 ft | 426 kts | 330° |
| 2026-04-24 12:58 | 47.50276 | -1.98105 | 38113 ft | 426 kts | 330° |
| 2026-04-24 12:59 | 47.55413 | -2.02368 | 38109 ft | 427 kts | 329° |
| 2026-04-24 12:59 | 47.60598 | -2.06678 | 38114 ft | 427 kts | 329° |
| 2026-04-24 13:00 | 47.65775 | -2.10990 | 38122 ft | 427 kts | 329° |
| 2026-04-24 13:00 | 47.70953 | -2.15316 | 38121 ft | 428 kts | 329° |
| 2026-04-24 13:01 | 47.76143 | -2.19660 | 38128 ft | 428 kts | 329° |
| 2026-04-24 13:01 | 47.81327 | -2.24009 | 38138 ft | 428 kts | 329° |
| 2026-04-24 13:02 | 47.86517 | -2.28372 | 38133 ft | 429 kts | 329° |
| 2026-04-24 13:02 | 47.91711 | -2.32747 | 38132 ft | 429 kts | 329° |
| 2026-04-24 13:03 | 47.96908 | -2.37137 | 38137 ft | 429 kts | 329° |
| 2026-04-24 13:03 | 48.02103 | -2.41538 | 38145 ft | 430 kts | 329° |
| 2026-04-24 13:04 | 48.07302 | -2.45952 | 38151 ft | 430 kts | 329° |
| 2026-04-24 13:04 | 48.12497 | -2.50370 | 38148 ft | 429 kts | 329° |
| 2026-04-24 13:05 | 48.17685 | -2.54795 | 38162 ft | 429 kts | 329° |
| 2026-04-24 13:05 | 48.22872 | -2.59230 | 38158 ft | 429 kts | 329° |
| 2026-04-24 13:06 | 48.28050 | -2.63666 | 38165 ft | 428 kts | 329° |
| 2026-04-24 13:06 | 48.33224 | -2.68109 | 38166 ft | 428 kts | 329° |
| 2026-04-24 13:07 | 48.38397 | -2.72561 | 38177 ft | 428 kts | 329° |
| 2026-04-24 13:07 | 48.43564 | -2.77018 | 38177 ft | 428 kts | 329° |
| 2026-04-24 13:08 | 48.48733 | -2.81489 | 38185 ft | 428 kts | 329° |
| 2026-04-24 13:08 | 48.53872 | -2.85944 | 38185 ft | 429 kts | 329° |
| 2026-04-24 13:09 | 48.60793 | -2.91963 | 38186 ft | 430 kts | 328° |
| 2026-04-24 13:09 | 48.65976 | -2.96481 | 38186 ft | 430 kts | 328° |
| 2026-04-24 13:10 | 48.71170 | -3.01019 | 38176 ft | 431 kts | 328° |
| 2026-04-24 13:10 | 48.76367 | -3.05571 | 38176 ft | 432 kts | 328° |
| 2026-04-24 13:11 | 48.81535 | -3.10107 | 38177 ft | 432 kts | 328° |
| 2026-04-24 13:11 | 48.86736 | -3.14685 | 38176 ft | 432 kts | 328° |
| 2026-04-24 13:12 | 48.91941 | -3.19280 | 38168 ft | 433 kts | 328° |
| 2026-04-24 13:12 | 48.97141 | -3.23881 | 38166 ft | 432 kts | 328° |
| 2026-04-24 13:13 | 49.02331 | -3.28482 | 38174 ft | 432 kts | 328° |
| 2026-04-24 13:13 | 49.07527 | -3.33101 | 38176 ft | 432 kts | 328° |
| 2026-04-24 13:14 | 49.12721 | -3.37728 | 38176 ft | 432 kts | 328° |
| 2026-04-24 13:14 | 49.17906 | -3.42359 | 38174 ft | 432 kts | 328° |
| 2026-04-24 13:15 | 49.23091 | -3.47002 | 38174 ft | 432 kts | 328° |
| 2026-04-24 13:15 | 49.28270 | -3.51652 | 38173 ft | 431 kts | 328° |
| 2026-04-24 13:16 | 49.33529 | -3.56093 | 38165 ft | 433 kts | 336° |
| 2026-04-24 13:16 | 49.39185 | -3.59301 | 38171 ft | 433 kts | 339° |
| 2026-04-24 13:17 | 49.44860 | -3.62401 | 38174 ft | 433 kts | 338° |
| 2026-04-24 13:17 | 49.50519 | -3.65590 | 38175 ft | 433 kts | 338° |
| 2026-04-24 13:18 | 49.56165 | -3.68823 | 38174 ft | 433 kts | 338° |
| 2026-04-24 13:18 | 49.61776 | -3.72050 | 38183 ft | 433 kts | 338° |
| 2026-04-24 13:19 | 49.67483 | -3.75230 | 38177 ft | 435 kts | 343° |
| 2026-04-24 13:19 | 49.73454 | -3.76223 | 38187 ft | 438 kts | 2° |
| 2026-04-24 13:20 | 49.79533 | -3.75481 | 38187 ft | 439 kts | 4° |
| 2026-04-24 13:20 | 49.85608 | -3.74644 | 38200 ft | 439 kts | 4° |
| 2026-04-24 13:21 | 49.91698 | -3.73873 | 38207 ft | 439 kts | 3° |
| 2026-04-24 13:21 | 49.97799 | -3.73140 | 38214 ft | 440 kts | 3° |
| 2026-04-24 13:22 | 50.03906 | -3.72410 | 38213 ft | 440 kts | 3° |
| 2026-04-24 13:22 | 50.10018 | -3.71681 | 38227 ft | 441 kts | 3° |
| 2026-04-24 13:23 | 50.16134 | -3.70946 | 38233 ft | 441 kts | 3° |
| 2026-04-24 13:23 | 50.22246 | -3.70208 | 38227 ft | 440 kts | 3° |
| 2026-04-24 13:24 | 50.28358 | -3.69470 | 38244 ft | 440 kts | 3° |
| 2026-04-24 13:24 | 50.34457 | -3.68732 | 38243 ft | 439 kts | 3° |
| 2026-04-24 13:25 | 50.40546 | -3.68438 | 38252 ft | 436 kts | 352° |
| 2026-04-24 13:25 | 50.46357 | -3.70812 | 38260 ft | 431 kts | 336° |
| 2026-04-24 13:26 | 50.51913 | -3.74328 | 38259 ft | 430 kts | 335° |
| 2026-04-24 13:26 | 50.57456 | -3.77859 | 38258 ft | 430 kts | 336° |
| 2026-04-24 13:27 | 50.62969 | -3.81325 | 38254 ft | 429 kts | 336° |
| 2026-04-24 13:27 | 50.68550 | -3.84806 | 38258 ft | 428 kts | 336° |
| 2026-04-24 13:28 | 50.74042 | -3.88239 | 38258 ft | 427 kts | 336° |
| 2026-04-24 13:28 | 50.79561 | -3.91698 | 38257 ft | 427 kts | 336° |
| 2026-04-24 13:29 | 50.85079 | -3.95167 | 38262 ft | 427 kts | 336° |
| 2026-04-24 13:29 | 50.90589 | -3.98642 | 38258 ft | 426 kts | 336° |
| 2026-04-24 13:30 | 50.96095 | -4.02119 | 38261 ft | 426 kts | 336° |
| 2026-04-24 13:30 | 51.01606 | -4.05608 | 38256 ft | 426 kts | 336° |
| 2026-04-24 13:31 | 51.07111 | -4.09103 | 38260 ft | 426 kts | 336° |
| 2026-04-24 13:31 | 51.12621 | -4.12605 | 38260 ft | 427 kts | 336° |
| 2026-04-24 13:32 | 51.18099 | -4.16104 | 38255 ft | 427 kts | 336° |
| 2026-04-24 13:32 | 51.23600 | -4.19627 | 38256 ft | 426 kts | 336° |
| 2026-04-24 13:33 | 51.29099 | -4.23155 | 38255 ft | 425 kts | 336° |
| 2026-04-24 13:33 | 51.34582 | -4.26683 | 38257 ft | 424 kts | 336° |
| 2026-04-24 13:34 | 51.40052 | -4.30209 | 38253 ft | 424 kts | 336° |
| 2026-04-24 13:34 | 51.45454 | -4.33923 | 38247 ft | 422 kts | 332° |
| 2026-04-24 13:35 | 51.50731 | -4.38001 | 38249 ft | 420 kts | 332° |
| 2026-04-24 13:35 | 51.55992 | -4.42077 | 38231 ft | 420 kts | 332° |
| 2026-04-24 13:36 | 51.61252 | -4.46112 | 38228 ft | 419 kts | 332° |
| 2026-04-24 13:36 | 51.66506 | -4.50139 | 38244 ft | 418 kts | 332° |
| 2026-04-24 13:37 | 51.71756 | -4.54172 | 38243 ft | 418 kts | 332° |
| 2026-04-24 13:37 | 51.76865 | -4.58582 | 38242 ft | 415 kts | 321° |
| 2026-04-24 13:38 | 51.80939 | -4.65055 | 38253 ft | 411 kts | 307° |
| 2026-04-24 13:38 | 51.84554 | -4.72290 | 37774 ft | 415 kts | 307° |
| 2026-04-24 13:39 | 51.86364 | -4.75914 | 37260 ft | 414 kts | 307° |
| 2026-04-24 13:39 | 51.88178 | -4.79521 | 36780 ft | 413 kts | 307° |
| 2026-04-24 13:39 | 51.89997 | -4.83120 | 36250 ft | 413 kts | 307° |
| 2026-04-24 13:39 | 51.91820 | -4.86719 | 35682 ft | 414 kts | 307° |
| 2026-04-24 13:40 | 51.93646 | -4.90324 | 35096 ft | 415 kts | 307° |
| 2026-04-24 13:40 | 51.95479 | -4.93947 | 34486 ft | 416 kts | 307° |
| 2026-04-24 13:40 | 51.97314 | -4.97581 | 33874 ft | 417 kts | 307° |
| 2026-04-24 13:40 | 51.99151 | -5.01216 | 33244 ft | 418 kts | 308° |
| 2026-04-24 13:41 | 52.01207 | -5.04592 | 32587 ft | 423 kts | 317° |
| 2026-04-24 13:41 | 52.03580 | -5.07427 | 31999 ft | 425 kts | 327° |
| 2026-04-24 13:41 | 52.06179 | -5.09665 | 31548 ft | 422 kts | 331° |
| 2026-04-24 13:41 | 52.08800 | -5.11761 | 31082 ft | 419 kts | 332° |
| 2026-04-24 13:42 | 52.11379 | -5.13799 | 30605 ft | 415 kts | 332° |
| 2026-04-24 13:42 | 52.13963 | -5.15854 | 30144 ft | 412 kts | 332° |
| 2026-04-24 13:42 | 52.16522 | -5.17913 | 29686 ft | 408 kts | 331° |
| 2026-04-24 13:42 | 52.19053 | -5.19967 | 29216 ft | 405 kts | 331° |
| 2026-04-24 13:43 | 52.21563 | -5.22017 | 28747 ft | 402 kts | 331° |
| 2026-04-24 13:43 | 52.24050 | -5.24056 | 28290 ft | 399 kts | 331° |
| 2026-04-24 13:43 | 52.26517 | -5.26083 | 27823 ft | 396 kts | 331° |
| 2026-04-24 13:43 | 52.28965 | -5.28096 | 27362 ft | 392 kts | 332° |
| 2026-04-24 13:44 | 52.31396 | -5.30098 | 26912 ft | 390 kts | 332° |
| 2026-04-24 13:44 | 52.33804 | -5.32083 | 26465 ft | 386 kts | 332° |
| 2026-04-24 13:44 | 52.36195 | -5.34057 | 26015 ft | 383 kts | 332° |
| 2026-04-24 13:44 | 52.38565 | -5.36013 | 25589 ft | 380 kts | 332° |
| 2026-04-24 13:45 | 52.40919 | -5.37959 | 25147 ft | 378 kts | 332° |
| 2026-04-24 13:45 | 52.43258 | -5.39897 | 24705 ft | 375 kts | 332° |
| 2026-04-24 13:45 | 52.45579 | -5.41823 | 24264 ft | 373 kts | 332° |
| 2026-04-24 13:45 | 52.47888 | -5.43741 | 23825 ft | 371 kts | 333° |
| 2026-04-24 13:46 | 52.50184 | -5.45651 | 23391 ft | 369 kts | 333° |
| 2026-04-24 13:46 | 52.52463 | -5.47549 | 22958 ft | 367 kts | 333° |
| 2026-04-24 13:46 | 52.54734 | -5.49436 | 22520 ft | 365 kts | 334° |
| 2026-04-24 13:46 | 52.57068 | -5.51019 | 22090 ft | 363 kts | 342° |
| 2026-04-24 13:47 | 52.59471 | -5.52231 | 21673 ft | 360 kts | 343° |
| 2026-04-24 13:47 | 52.61871 | -5.53388 | 21243 ft | 358 kts | 343° |
| 2026-04-24 13:47 | 52.64254 | -5.54551 | 20819 ft | 356 kts | 343° |
| 2026-04-24 13:47 | 52.66613 | -5.55736 | 20400 ft | 354 kts | 343° |
| 2026-04-24 13:48 | 52.68958 | -5.56935 | 19979 ft | 352 kts | 343° |
| 2026-04-24 13:48 | 52.71287 | -5.58132 | 19562 ft | 350 kts | 343° |
| 2026-04-24 13:48 | 52.73627 | -5.59338 | 18873 ft | 356 kts | 343° |
| 2026-04-24 13:48 | 52.76010 | -5.60568 | 18242 ft | 360 kts | 343° |
| 2026-04-24 13:49 | 52.78397 | -5.61801 | 17781 ft | 359 kts | 343° |
| 2026-04-24 13:49 | 52.80766 | -5.63029 | 17367 ft | 355 kts | 343° |
| 2026-04-24 13:49 | 52.83114 | -5.64245 | 16930 ft | 353 kts | 343° |
| 2026-04-24 13:49 | 52.85452 | -5.65458 | 16443 ft | 352 kts | 343° |
| 2026-04-24 13:50 | 52.87786 | -5.66669 | 15989 ft | 351 kts | 343° |
| 2026-04-24 13:50 | 52.90098 | -5.67870 | 15634 ft | 346 kts | 343° |
| 2026-04-24 13:50 | 52.92381 | -5.69062 | 15284 ft | 342 kts | 343° |
| 2026-04-24 13:50 | 52.94636 | -5.70235 | 14947 ft | 337 kts | 343° |
| 2026-04-24 13:51 | 52.96859 | -5.71393 | 14607 ft | 334 kts | 343° |
| 2026-04-24 13:51 | 52.99036 | -5.72527 | 14250 ft | 331 kts | 343° |
| 2026-04-24 13:51 | 53.01248 | -5.73683 | 13888 ft | 328 kts | 343° |
| 2026-04-24 13:51 | 53.03419 | -5.74819 | 13521 ft | 326 kts | 343° |
| 2026-04-24 13:52 | 53.04845 | -5.75565 | 13290 ft | 324 kts | 343° |
| 2026-04-24 13:52 | 53.07706 | -5.77065 | 12859 ft | 320 kts | 343° |
| 2026-04-24 13:52 | 53.09823 | -5.78175 | 12563 ft | 320 kts | 343° |
| 2026-04-24 13:52 | 53.11912 | -5.79347 | 12235 ft | 323 kts | 336° |
| 2026-04-24 13:53 | 53.13739 | -5.81548 | 11885 ft | 331 kts | 311° |
| 2026-04-24 13:53 | 53.14932 | -5.84826 | 11518 ft | 333 kts | 294° |
| 2026-04-24 13:53 | 53.15849 | -5.88363 | 11120 ft | 331 kts | 292° |
| 2026-04-24 13:53 | 53.16730 | -5.91894 | 10778 ft | 327 kts | 292° |
| 2026-04-24 13:54 | 53.17590 | -5.95330 | 10648 ft | 316 kts | 292° |
| 2026-04-24 13:54 | 53.18435 | -5.98660 | 10512 ft | 307 kts | 292° |
| 2026-04-24 13:54 | 53.19260 | -6.01884 | 10384 ft | 298 kts | 292° |
| 2026-04-24 13:54 | 53.20066 | -6.05015 | 10231 ft | 291 kts | 292° |
| 2026-04-24 13:55 | 53.20865 | -6.08112 | 9941 ft | 290 kts | 292° |
| 2026-04-24 13:55 | 53.21659 | -6.11184 | 9666 ft | 288 kts | 292° |
| 2026-04-24 13:55 | 53.22450 | -6.14247 | 9379 ft | 287 kts | 292° |
| 2026-04-24 13:55 | 53.23237 | -6.17296 | 9094 ft | 286 kts | 292° |
| 2026-04-24 13:56 | 53.24019 | -6.20332 | 8807 ft | 285 kts | 292° |
| 2026-04-24 13:56 | 53.24798 | -6.23362 | 8527 ft | 284 kts | 292° |
| 2026-04-24 13:56 | 53.25575 | -6.26393 | 8223 ft | 283 kts | 292° |
| 2026-04-24 13:56 | 53.26349 | -6.29411 | 7939 ft | 282 kts | 292° |
| 2026-04-24 13:57 | 53.27118 | -6.32410 | 7659 ft | 280 kts | 292° |
| 2026-04-24 13:57 | 53.27874 | -6.35366 | 7539 ft | 273 kts | 292° |
| 2026-04-24 13:57 | 53.28614 | -6.38264 | 7397 ft | 268 kts | 292° |
| 2026-04-24 13:57 | 53.29337 | -6.41094 | 7265 ft | 263 kts | 292° |
| 2026-04-24 13:58 | 53.29810 | -6.42948 | 7128 ft | 261 kts | 292° |
| 2026-04-24 13:58 | 53.30513 | -6.45711 | 6939 ft | 256 kts | 292° |
| 2026-04-24 13:58 | 53.31206 | -6.48442 | 6728 ft | 254 kts | 292° |
| 2026-04-24 13:58 | 53.31892 | -6.51150 | 6545 ft | 251 kts | 292° |
| 2026-04-24 13:59 | 53.32573 | -6.53834 | 6340 ft | 251 kts | 292° |
| 2026-04-24 13:59 | 53.33251 | -6.56510 | 6171 ft | 249 kts | 292° |
| 2026-04-24 13:59 | 53.33929 | -6.59179 | 5968 ft | 249 kts | 292° |
| 2026-04-24 13:59 | 53.34602 | -6.61843 | 5783 ft | 249 kts | 291° |
| 2026-04-24 14:00 | 53.35276 | -6.64510 | 5584 ft | 248 kts | 292° |
| 2026-04-24 14:00 | 53.36021 | -6.67111 | 5389 ft | 249 kts | 306° |
| 2026-04-24 14:00 | 53.37356 | -6.68882 | 5184 ft | 246 kts | 341° |
| 2026-04-24 14:00 | 53.39024 | -6.69278 | 5020 ft | 242 kts | 4° |
| 2026-04-24 14:01 | 53.40692 | -6.69063 | 4842 ft | 240 kts | 8° |
| 2026-04-24 14:01 | 53.42347 | -6.68779 | 4656 ft | 240 kts | 8° |
| 2026-04-24 14:01 | 53.43980 | -6.68355 | 4444 ft | 236 kts | 23° |
| 2026-04-24 14:01 | 53.45256 | -6.66780 | 4248 ft | 227 kts | 59° |
| 2026-04-24 14:02 | 53.45690 | -6.64356 | 4088 ft | 215 kts | 91° |
| 2026-04-24 14:02 | 53.45602 | -6.61894 | 3944 ft | 209 kts | 97° |
| 2026-04-24 14:02 | 53.45458 | -6.59484 | 3783 ft | 206 kts | 97° |
| 2026-04-24 14:02 | 53.45320 | -6.57110 | 3603 ft | 203 kts | 97° |
| 2026-04-24 14:03 | 53.45184 | -6.54764 | 3461 ft | 203 kts | 97° |
| 2026-04-24 14:03 | 53.45051 | -6.52417 | 3323 ft | 201 kts | 97° |
| 2026-04-24 14:03 | 53.44920 | -6.50073 | 3277 ft | 203 kts | 96° |
| 2026-04-24 14:03 | 53.44793 | -6.47734 | 3270 ft | 200 kts | 96° |
| 2026-04-24 14:04 | 53.44670 | -6.45409 | 3278 ft | 201 kts | 96° |
| 2026-04-24 14:04 | 53.44545 | -6.43078 | 3265 ft | 200 kts | 96° |
| 2026-04-24 14:04 | 53.44414 | -6.40764 | 3279 ft | 199 kts | 96° |
| 2026-04-24 14:04 | 53.44289 | -6.38447 | 3284 ft | 200 kts | 96° |
| 2026-04-24 14:05 | 53.44157 | -6.36122 | 3277 ft | 201 kts | 96° |
| 2026-04-24 14:05 | 53.44029 | -6.33791 | 3305 ft | 201 kts | 96° |
| 2026-04-24 14:05 | 53.43902 | -6.31459 | 3284 ft | 205 kts | 96° |
| 2026-04-24 14:05 | 53.43768 | -6.29071 | 3300 ft | 206 kts | 96° |
| 2026-04-24 14:06 | 53.43639 | -6.26708 | 3307 ft | 201 kts | 96° |
| 2026-04-24 14:06 | 53.43511 | -6.24357 | 3293 ft | 200 kts | 96° |
| 2026-04-24 14:06 | 53.43386 | -6.22039 | 3292 ft | 199 kts | 94° |
| 2026-04-24 14:06 | 53.43688 | -6.19785 | 3283 ft | 204 kts | 59° |
| 2026-04-24 14:07 | 53.44766 | -6.18250 | 3323 ft | 211 kts | 24° |
| 2026-04-24 14:07 | 53.46231 | -6.18011 | 3210 ft | 217 kts | 348° |
| 2026-04-24 14:07 | 53.47570 | -6.19269 | 3139 ft | 235 kts | 313° |
| 2026-04-24 14:07 | 53.48396 | -6.21709 | 3046 ft | 247 kts | 288° |
| 2026-04-24 14:08 | 53.48889 | -6.24483 | 3019 ft | 249 kts | 285° |
| 2026-04-24 14:08 | 53.49350 | -6.27287 | 2904 ft | 248 kts | 285° |
| 2026-04-24 14:08 | 53.49796 | -6.30025 | 2764 ft | 242 kts | 284° |
| 2026-04-24 14:08 | 53.50229 | -6.32699 | 2620 ft | 235 kts | 285° |
| 2026-04-24 14:09 | 53.50646 | -6.35308 | 2512 ft | 227 kts | 284° |
| 2026-04-24 14:09 | 53.51047 | -6.37853 | 2495 ft | 226 kts | 284° |
| 2026-04-24 14:09 | 53.51437 | -6.40410 | 2493 ft | 226 kts | 280° |
| 2026-04-24 14:09 | 53.51379 | -6.43019 | 2362 ft | 225 kts | 251° |